createdAt,value
2019-04-04T00:00:54.538Z,4.80
2019-04-04T00:03:23.419Z,4.80
2019-04-04T00:05:52.403Z,4.70
2019-04-04T00:08:21.361Z,4.70
2019-04-04T00:10:50.322Z,4.80
2019-04-04T00:13:19.183Z,4.60
2019-04-04T00:15:48.208Z,4.50
2019-04-04T00:18:17.117Z,4.60
2019-04-04T00:20:46.166Z,4.60
2019-04-04T00:23:15.057Z,4.40
2019-04-04T00:25:44.341Z,4.50
2019-04-04T00:28:14.893Z,4.50
2019-04-04T00:30:44.181Z,4.50
2019-04-04T00:33:13.209Z,4.50
2019-04-04T00:35:42.143Z,4.50
2019-04-04T00:38:11.169Z,4.50
2019-04-04T00:40:41.968Z,4.50
2019-04-04T00:43:10.825Z,4.50
2019-04-04T00:45:39.794Z,4.50
2019-04-04T00:48:08.824Z,4.40
2019-04-04T00:50:37.858Z,4.40
2019-04-04T00:53:06.763Z,4.40
2019-04-04T00:55:35.807Z,4.40
2019-04-04T00:58:07.790Z,4.40
2019-04-04T01:00:36.757Z,4.50
2019-04-04T01:03:05.713Z,4.50
2019-04-04T01:05:34.699Z,4.50
2019-04-04T01:08:04.946Z,4.50
2019-04-04T01:10:34.411Z,4.50
2019-04-04T01:13:03.436Z,4.50
2019-04-04T01:15:32.455Z,4.50
2019-04-04T01:18:01.426Z,4.60
2019-04-04T01:20:30.465Z,4.50
2019-04-04T01:23:00.082Z,4.50
2019-04-04T01:25:31.829Z,4.50
2019-04-04T01:27:59.800Z,4.40
2019-04-04T01:30:28.698Z,4.40
2019-04-04T01:32:57.670Z,4.50
2019-04-04T01:35:26.682Z,4.40
2019-04-04T01:37:56.060Z,4.40
2019-04-04T01:40:27.516Z,4.50
2019-04-04T01:42:56.423Z,4.60
2019-04-04T01:45:25.710Z,4.60
2019-04-04T01:47:54.660Z,4.60
2019-04-04T01:50:23.644Z,4.50
2019-04-04T01:52:52.542Z,4.60
2019-04-04T01:55:21.487Z,4.60
2019-04-04T01:57:50.381Z,4.70
2019-04-04T02:00:19.326Z,4.70
2019-04-04T02:02:51.566Z,4.70
2019-04-04T02:05:18.857Z,4.70
2019-04-04T02:07:47.811Z,4.70
2019-04-04T02:10:16.756Z,4.60
2019-04-04T02:12:45.883Z,4.70
2019-04-04T02:15:15.027Z,4.70
2019-04-04T02:17:44.141Z,4.50
2019-04-04T02:20:13.174Z,4.50
2019-04-04T02:22:44.904Z,4.50
2019-04-04T02:25:13.961Z,4.50
2019-04-04T02:27:42.844Z,4.50
2019-04-04T02:30:15.198Z,4.50
2019-04-04T02:32:42.577Z,4.60
2019-04-04T02:35:11.774Z,4.50
2019-04-04T02:37:40.828Z,4.60
2019-04-04T02:40:10.133Z,4.50
2019-04-04T02:42:39.264Z,4.40
2019-04-04T02:45:08.203Z,4.40
2019-04-04T02:47:37.266Z,4.50
2019-04-04T02:50:06.371Z,4.40
2019-04-04T02:52:35.400Z,4.40
2019-04-04T02:55:04.452Z,4.50
2019-04-04T02:57:33.508Z,4.40
2019-04-04T03:00:02.445Z,4.60
2019-04-04T03:02:31.322Z,4.50
2019-04-04T03:05:00.192Z,4.40
2019-04-04T03:07:30.976Z,4.40
2019-04-04T03:09:59.686Z,4.50
2019-04-04T03:12:28.544Z,4.50
2019-04-04T03:14:57.547Z,4.50
2019-04-04T03:17:31.551Z,4.40
2019-04-04T03:19:57.102Z,4.30
2019-04-04T03:22:27.545Z,4.40
2019-04-04T03:24:56.794Z,4.20
2019-04-04T03:27:27.172Z,4.20
2019-04-04T03:29:56.373Z,4.20
2019-04-04T03:32:25.260Z,4.30
2019-04-04T03:34:54.286Z,4.20
2019-04-04T03:37:23.483Z,4.20
2019-04-04T03:39:53.386Z,4.20
2019-04-04T03:42:22.556Z,4.20
2019-04-04T03:44:53.306Z,4.30
2019-04-04T03:47:22.048Z,4.30
2019-04-04T03:49:51.173Z,4.20
2019-04-04T03:52:20.032Z,4.20
2019-04-04T03:54:48.989Z,4.30
2019-04-04T03:57:17.815Z,4.30
2019-04-04T03:59:47.157Z,4.30
2019-04-04T04:02:18.592Z,4.40
2019-04-04T04:04:46.902Z,4.40
2019-04-04T04:07:15.809Z,4.50
2019-04-04T04:09:44.722Z,4.40
2019-04-04T04:12:16.049Z,4.30
2019-04-04T04:14:44.978Z,4.40
2019-04-04T04:17:13.798Z,4.30
2019-04-04T04:19:42.766Z,4.40
2019-04-04T04:22:13.095Z,4.30
2019-04-04T04:24:42.455Z,4.30
2019-04-04T04:27:14.488Z,4.30
2019-04-04T04:29:41.999Z,4.30
2019-04-04T04:32:10.920Z,4.30
2019-04-04T04:34:40.024Z,4.30
2019-04-04T04:37:09.029Z,4.50
2019-04-04T04:39:41.314Z,4.50
2019-04-04T04:42:09.551Z,4.40
2019-04-04T04:44:38.981Z,4.40
2019-04-04T04:47:07.906Z,4.40
2019-04-04T04:49:36.908Z,4.30
2019-04-04T04:52:05.837Z,4.30
2019-04-04T04:54:34.878Z,4.10
2019-04-04T04:57:04.842Z,4.30
2019-04-04T04:59:34.058Z,4.20
2019-04-04T05:02:02.863Z,4.20
2019-04-04T05:04:32.023Z,4.20
2019-04-04T05:07:00.968Z,4.20
2019-04-04T05:09:29.982Z,4.30
2019-04-04T05:11:58.922Z,4.20
2019-04-04T05:14:29.803Z,4.10
2019-04-04T05:16:58.627Z,4.00
2019-04-04T05:19:27.557Z,4.00
2019-04-04T05:21:56.377Z,4.10
2019-04-04T05:24:25.456Z,4.10
2019-04-04T05:26:54.434Z,4.20
2019-04-04T05:29:23.390Z,4.10
2019-04-04T05:31:52.258Z,4.10
2019-04-04T05:34:21.157Z,4.10
2019-04-04T05:36:50.082Z,4.10
2019-04-04T05:39:19.038Z,4.10
2019-04-04T05:41:47.903Z,4.00
2019-04-04T05:44:16.845Z,3.90
2019-04-04T05:46:45.720Z,3.90
2019-04-04T05:49:14.578Z,3.80
2019-04-04T05:51:43.509Z,4.00
2019-04-04T05:54:12.566Z,3.90
2019-04-04T05:56:44.275Z,3.90
2019-04-04T05:59:11.865Z,3.90
2019-04-04T06:01:40.922Z,3.90
2019-04-04T06:04:09.923Z,4.00
2019-04-04T06:06:38.830Z,4.00
2019-04-04T06:09:09.467Z,4.00
2019-04-04T06:11:38.402Z,4.00
2019-04-04T06:14:07.205Z,4.00
2019-04-04T06:16:36.211Z,4.00
2019-04-04T06:19:05.071Z,4.10
2019-04-04T06:21:33.943Z,4.20
2019-04-04T06:24:02.826Z,4.20
2019-04-04T06:26:31.710Z,4.30
2019-04-04T06:29:00.614Z,4.30
2019-04-04T06:31:30.925Z,4.20
2019-04-04T06:33:59.900Z,4.20
2019-04-04T06:36:28.666Z,4.20
2019-04-04T06:38:57.526Z,4.20
2019-04-04T06:41:28.303Z,4.20
2019-04-04T06:43:57.485Z,4.20
2019-04-04T06:46:26.514Z,4.20
2019-04-04T06:48:55.433Z,4.20
2019-04-04T06:51:24.343Z,4.30
2019-04-04T06:53:53.685Z,4.20
2019-04-04T06:56:23.277Z,4.20
2019-04-04T06:58:52.054Z,4.30
2019-04-04T07:01:21.992Z,4.30
2019-04-04T07:03:52.683Z,4.10
2019-04-04T07:06:21.697Z,4.20
2019-04-04T07:08:50.454Z,4.20
2019-04-04T07:11:21.445Z,4.30
2019-04-04T07:13:49.938Z,4.20
2019-04-04T07:16:18.838Z,4.00
2019-04-04T07:18:47.673Z,3.90
2019-04-04T07:21:19.893Z,4.00
2019-04-04T07:23:47.126Z,4.10
2019-04-04T07:26:15.937Z,4.10
2019-04-04T07:28:44.726Z,4.00
2019-04-04T07:31:15.858Z,3.90
2019-04-04T07:33:44.089Z,4.00
2019-04-04T07:36:14.260Z,3.90
2019-04-04T07:38:43.061Z,4.20
2019-04-04T07:41:14.581Z,4.10
2019-04-04T07:43:42.765Z,4.10
2019-04-04T07:46:16.773Z,4.20
2019-04-04T07:48:42.194Z,4.30
2019-04-04T07:51:11.090Z,4.40
2019-04-04T07:53:40.076Z,4.50
2019-04-04T07:56:09.030Z,4.40
2019-04-04T07:58:37.991Z,4.40
2019-04-04T08:01:06.858Z,4.40
2019-04-04T08:03:35.652Z,4.40
2019-04-04T08:06:04.448Z,4.40
2019-04-04T08:08:33.249Z,4.60
2019-04-04T08:11:03.182Z,4.70
2019-04-04T08:13:32.570Z,4.60
2019-04-04T08:16:01.471Z,4.60
2019-04-04T08:18:30.480Z,4.60
2019-04-04T08:20:59.344Z,4.70
2019-04-04T08:23:29.575Z,4.80
2019-04-04T08:28:49.657Z,4.90
2019-04-04T08:34:37.488Z,5.00
2019-04-04T08:37:25.768Z,5.10
2019-04-04T08:40:07.963Z,5.00
2019-04-04T08:42:49.727Z,5.20
2019-04-04T08:45:30.934Z,5.40
2019-04-04T08:48:15.285Z,5.70
2019-04-04T08:51:02.859Z,5.90
2019-04-04T08:56:27.408Z,5.50
2019-04-04T08:59:15.707Z,5.50
2019-04-04T09:07:50.303Z,5.70
2019-04-04T09:10:30.760Z,5.50
2019-04-04T09:15:58.141Z,5.60
2019-04-04T09:18:40.671Z,5.50
2019-04-04T09:21:22.114Z,5.60
2019-04-04T09:24:02.691Z,5.80
2019-04-04T09:26:43.430Z,5.80
2019-04-04T09:29:28.750Z,6.00
2019-04-04T09:32:22.046Z,6.00
2019-04-04T09:37:48.032Z,5.80
2019-04-04T09:43:20.649Z,5.90
2019-04-04T09:45:49.778Z,5.90
2019-04-04T09:48:38.165Z,5.80
2019-04-04T09:51:26.414Z,5.70
2019-04-04T09:54:08.997Z,5.60
2019-04-04T10:08:10.819Z,5.90
2019-04-04T10:10:59.653Z,6.10
2019-04-04T10:22:12.224Z,6.20
2019-04-04T10:28:17.376Z,6.30
2019-04-04T10:33:29.032Z,6.00
2019-04-04T10:45:21.588Z,6.30
2019-04-04T10:50:48.928Z,6.30
2019-04-04T10:56:12.953Z,6.20
2019-04-04T10:58:54.036Z,6.00
2019-04-04T11:04:42.149Z,5.90
2019-04-04T11:07:30.251Z,5.60
2019-04-04T11:10:10.860Z,5.50
2019-04-04T11:15:51.793Z,5.70
2019-04-04T11:21:20.594Z,5.80
2019-04-04T11:24:01.838Z,5.70
2019-04-04T11:26:45.975Z,5.50
2019-04-04T11:29:29.009Z,5.60
2019-04-04T11:33:44.629Z,5.60
2019-04-04T11:40:37.545Z,5.70
2019-04-04T11:43:18.865Z,5.90
2019-04-04T11:45:59.439Z,6.00
2019-04-04T11:48:40.287Z,5.70
2019-04-04T11:54:12.937Z,5.90
2019-04-04T11:56:41.906Z,6.10
2019-04-04T12:05:30.287Z,6.30
2019-04-04T12:10:59.740Z,5.60
2019-04-04T12:13:41.038Z,5.70
2019-04-04T12:16:25.467Z,5.60
2019-04-04T12:19:07.689Z,5.40
2019-04-04T12:21:50.749Z,5.50
2019-04-04T12:27:16.598Z,5.30
2019-04-04T12:30:00.113Z,5.20
2019-04-04T12:35:42.485Z,5.40
2019-04-04T12:41:20.140Z,5.50
2019-04-04T12:52:30.666Z,5.70
2019-04-04T12:58:04.202Z,5.50
2019-04-04T13:09:09.417Z,5.70
2019-04-04T13:11:38.581Z,5.60
2019-04-04T13:14:07.588Z,5.70
2019-04-04T13:16:36.481Z,5.70
2019-04-04T13:19:05.379Z,5.60
2019-04-04T13:21:34.430Z,5.70
2019-04-04T13:24:03.263Z,5.80
2019-04-04T13:26:32.528Z,5.80
2019-04-04T13:29:01.807Z,5.70
2019-04-04T13:31:31.580Z,5.80
2019-04-04T13:34:00.403Z,6.00
2019-04-04T13:36:29.292Z,5.90
2019-04-04T13:38:58.159Z,6.00
2019-04-04T13:41:27.221Z,6.00
2019-04-04T13:43:56.486Z,5.90
2019-04-04T13:46:35.863Z,6.00
2019-04-04T13:49:04.844Z,5.90
2019-04-04T13:51:33.770Z,5.90
2019-04-04T13:54:02.710Z,5.80
2019-04-04T13:56:31.641Z,5.50
2019-04-04T13:59:02.517Z,5.90
2019-04-04T14:01:31.726Z,5.90
2019-04-04T14:04:00.689Z,6.10
2019-04-04T14:06:29.590Z,6.10
2019-04-04T14:08:58.507Z,6.40
2019-04-04T14:11:27.349Z,6.70
2019-04-04T14:13:58.678Z,10.10
2019-04-04T14:16:26.968Z,7.30
2019-04-04T14:18:55.745Z,7.80
2019-04-04T14:21:24.635Z,7.50
2019-04-04T14:23:53.576Z,7.30
2019-04-04T14:26:22.647Z,6.80
2019-04-04T14:28:51.526Z,6.50
2019-04-04T14:31:20.548Z,6.40
2019-04-04T14:33:49.528Z,6.60
2019-04-04T14:36:18.378Z,6.80
2019-04-04T14:38:47.320Z,7.10
2019-04-04T14:41:16.429Z,7.20
2019-04-04T14:43:45.589Z,6.90
2019-04-04T14:46:14.545Z,6.80
2019-04-04T14:48:43.572Z,6.70
2019-04-04T14:51:13.210Z,6.50
2019-04-04T14:53:42.069Z,6.70
2019-04-04T14:56:11.031Z,6.90
2019-04-04T14:58:39.994Z,7.00
2019-04-04T15:01:08.860Z,7.00
2019-04-04T15:03:37.852Z,7.00
2019-04-04T15:06:06.647Z,7.00
2019-04-04T15:08:35.529Z,6.80
2019-04-04T15:11:04.621Z,6.90
2019-04-04T15:13:33.571Z,7.20
2019-04-04T15:16:15.490Z,7.30
2019-04-04T15:18:44.448Z,7.40
2019-04-04T15:21:13.361Z,7.90
2019-04-04T15:23:42.245Z,8.20
2019-04-04T15:26:11.102Z,8.10
2019-04-04T15:28:39.961Z,7.30
2019-04-04T15:31:08.913Z,7.30
2019-04-04T15:33:37.795Z,7.20
2019-04-04T15:36:09.138Z,7.00
2019-04-04T15:38:38.009Z,7.00
2019-04-04T15:41:07.012Z,7.20
2019-04-04T15:43:35.981Z,7.00
2019-04-04T15:46:04.891Z,7.00
2019-04-04T15:48:33.968Z,6.80
2019-04-04T15:51:03.053Z,6.80
2019-04-04T15:53:32.027Z,6.80
2019-04-04T15:56:00.947Z,6.70
2019-04-04T15:58:30.310Z,6.70
2019-04-04T16:00:59.254Z,6.20
2019-04-04T16:03:28.196Z,6.00
2019-04-04T16:05:57.109Z,6.00
2019-04-04T16:08:26.084Z,6.10
2019-04-04T16:10:55.172Z,6.10
2019-04-04T16:13:24.164Z,6.20
2019-04-04T16:15:53.404Z,6.10
2019-04-04T16:18:22.415Z,6.20
2019-04-04T16:20:51.311Z,6.30
2019-04-04T16:23:20.293Z,6.30
2019-04-04T16:25:49.233Z,6.20
2019-04-04T16:28:18.096Z,6.20
2019-04-04T16:30:46.939Z,6.20
2019-04-04T16:33:15.971Z,6.10
2019-04-04T16:35:44.966Z,6.20
2019-04-04T16:38:13.832Z,6.20
2019-04-04T16:40:42.678Z,6.20
2019-04-04T16:43:11.645Z,6.20
2019-04-04T16:45:43.724Z,6.20
2019-04-04T16:48:14.007Z,6.30
2019-04-04T16:50:43.252Z,6.30
2019-04-04T16:53:12.228Z,6.50
2019-04-04T16:55:41.200Z,6.50
2019-04-04T16:58:10.032Z,6.40
2019-04-04T17:00:39.033Z,6.30
2019-04-04T17:03:07.882Z,6.20
2019-04-04T17:05:37.071Z,6.20
2019-04-04T17:08:06.024Z,6.10
2019-04-04T17:10:35.014Z,6.00
2019-04-04T17:13:03.957Z,6.00
2019-04-04T17:15:32.975Z,6.00
2019-04-04T17:18:02.159Z,6.00
2019-04-04T17:20:33.772Z,6.00
2019-04-04T17:23:02.858Z,5.90
2019-04-04T17:25:31.845Z,5.90
2019-04-04T17:28:00.732Z,5.80
2019-04-04T17:30:29.553Z,5.80
2019-04-04T17:32:58.945Z,6.00
2019-04-04T17:35:28.178Z,5.80
2019-04-04T17:37:57.787Z,5.80
2019-04-04T17:40:27.097Z,5.80
2019-04-04T17:42:56.752Z,5.60
2019-04-04T17:45:25.781Z,5.60
2019-04-04T17:47:54.810Z,5.60
2019-04-04T17:50:24.111Z,5.70
2019-04-04T17:52:53.026Z,5.80
2019-04-04T17:55:21.925Z,5.70
2019-04-04T17:57:51.419Z,5.70
2019-04-04T18:00:21.188Z,5.60
2019-04-04T18:02:49.994Z,5.50
2019-04-04T18:05:19.034Z,5.30
2019-04-04T18:07:47.993Z,5.10
2019-04-04T18:10:17.140Z,5.10
2019-04-04T18:12:46.432Z,5.10
2019-04-04T18:15:15.489Z,5.00
2019-04-04T18:17:44.503Z,4.90
2019-04-04T18:20:13.521Z,5.00
2019-04-04T18:22:42.496Z,5.00
2019-04-04T18:25:11.566Z,5.00
2019-04-04T18:27:42.635Z,4.90
2019-04-04T18:30:11.293Z,5.00
2019-04-04T18:32:40.333Z,5.00
2019-04-04T18:35:09.389Z,5.00
2019-04-04T18:37:38.463Z,5.00
2019-04-04T18:40:07.645Z,5.00
2019-04-04T18:42:36.676Z,5.00
2019-04-04T18:45:05.986Z,5.10
2019-04-04T18:47:35.093Z,5.10
2019-04-04T18:50:04.359Z,5.10
2019-04-04T18:52:33.349Z,5.00
2019-04-04T18:55:02.362Z,5.00
2019-04-04T18:57:31.364Z,4.90
2019-04-04T19:00:00.341Z,4.90
2019-04-04T19:02:29.320Z,4.90
2019-04-04T19:04:58.362Z,4.90
2019-04-04T19:07:38.664Z,5.00
2019-04-04T19:09:57.949Z,5.00
2019-04-04T19:12:27.054Z,5.00
2019-04-04T19:14:56.085Z,5.00
2019-04-04T19:17:25.193Z,4.80
2019-04-04T19:19:54.270Z,4.80
2019-04-04T19:22:23.373Z,4.80
2019-04-04T19:24:52.402Z,4.70
2019-04-04T19:27:21.479Z,4.80
2019-04-04T19:29:50.617Z,4.80
2019-04-04T19:32:19.660Z,4.90
2019-04-04T19:34:48.648Z,4.80
2019-04-04T19:37:17.772Z,4.80
2019-04-04T19:39:46.846Z,4.80
2019-04-04T19:42:15.911Z,6.40
2019-04-04T19:44:53.078Z,4.80
2019-04-04T19:47:15.933Z,4.80
2019-04-04T19:49:45.056Z,4.90
2019-04-04T19:52:13.938Z,4.80
2019-04-04T19:54:42.964Z,4.70
2019-04-04T19:57:11.934Z,4.80
2019-04-04T19:59:40.841Z,4.70
2019-04-04T20:02:10.088Z,4.70
2019-04-04T20:04:39.316Z,4.70
2019-04-04T20:07:08.901Z,4.60
2019-04-04T20:09:37.890Z,4.60
2019-04-04T20:12:06.884Z,4.50
2019-04-04T20:14:35.888Z,4.50
2019-04-04T20:17:05.139Z,5.50
2019-04-04T20:19:34.256Z,4.60
2019-04-04T20:22:03.329Z,4.60
2019-04-04T20:24:35.529Z,4.50
2019-04-04T20:27:04.439Z,4.40
2019-04-04T20:29:33.465Z,4.50
2019-04-04T20:32:02.558Z,4.40
2019-04-04T20:34:31.515Z,4.50
2019-04-04T20:37:00.508Z,4.50
2019-04-04T20:39:29.746Z,4.50
2019-04-04T20:41:58.785Z,4.50
2019-04-04T20:44:27.767Z,4.50
2019-04-04T20:46:56.733Z,4.50
2019-04-04T20:49:25.776Z,4.40
2019-04-04T20:51:54.848Z,4.50
2019-04-04T20:54:23.835Z,4.50
2019-04-04T20:56:52.922Z,4.40
2019-04-04T20:59:21.842Z,4.30
2019-04-04T21:01:50.795Z,4.20
2019-04-04T21:04:19.742Z,4.20
2019-04-04T21:06:48.617Z,4.10
2019-04-04T21:09:17.608Z,4.10
2019-04-04T21:11:46.817Z,4.20
2019-04-04T21:14:16.163Z,4.10
2019-04-04T21:16:45.150Z,4.00
2019-04-04T21:19:14.054Z,4.00
2019-04-04T21:21:43.035Z,3.90
2019-04-04T21:24:12.030Z,3.90
2019-04-04T21:26:41.451Z,3.80
2019-04-04T21:29:10.463Z,3.80
2019-04-04T21:31:39.660Z,3.70
2019-04-04T21:34:08.687Z,3.80
2019-04-04T21:36:37.623Z,3.80
2019-04-04T21:39:07.862Z,3.70
2019-04-04T21:41:36.871Z,3.60
2019-04-04T21:44:09.050Z,3.60
2019-04-04T21:46:36.659Z,3.60
2019-04-04T21:49:05.658Z,3.60
2019-04-04T21:51:34.554Z,3.40
2019-04-04T21:54:03.498Z,3.60
2019-04-04T21:56:32.455Z,3.40
2019-04-04T21:59:01.357Z,3.40
2019-04-04T22:01:30.324Z,3.40
2019-04-04T22:03:59.410Z,3.40
2019-04-04T22:06:28.301Z,3.30
2019-04-04T22:08:57.242Z,3.20
2019-04-04T22:11:26.291Z,3.20
2019-04-04T22:13:55.305Z,3.20
2019-04-04T22:16:24.224Z,3.20
2019-04-04T22:18:53.283Z,3.20
2019-04-04T22:21:22.194Z,3.10
2019-04-04T22:23:51.181Z,3.10
2019-04-04T22:26:20.026Z,3.10
2019-04-04T22:28:48.990Z,3.10
2019-04-04T22:31:18.013Z,3.20
2019-04-04T22:33:46.890Z,3.30
2019-04-04T22:36:15.814Z,3.30
2019-04-04T22:38:44.686Z,3.30
2019-04-04T22:41:13.573Z,3.30
2019-04-04T22:43:42.605Z,3.30
2019-04-04T22:46:11.462Z,3.30
2019-04-04T22:48:40.383Z,3.30
2019-04-04T22:51:09.358Z,3.40
2019-04-04T22:53:38.263Z,3.20
2019-04-04T22:56:07.318Z,3.30
2019-04-04T22:58:36.256Z,3.30
2019-04-04T23:01:05.118Z,3.30
2019-04-04T23:03:33.998Z,3.10
2019-04-04T23:06:03.016Z,3.10
2019-04-04T23:08:31.913Z,3.10
2019-04-04T23:11:00.855Z,3.10
2019-04-04T23:13:29.718Z,3.10
2019-04-04T23:15:58.746Z,3.10
2019-04-04T23:18:27.631Z,3.00
2019-04-04T23:20:56.490Z,3.00
2019-04-04T23:23:25.339Z,3.00
2019-04-04T23:25:54.186Z,3.00
2019-04-04T23:28:23.060Z,3.00
2019-04-04T23:30:52.050Z,3.00
2019-04-04T23:33:20.976Z,3.00
2019-04-04T23:35:49.927Z,2.90
2019-04-04T23:38:18.921Z,2.80
2019-04-04T23:40:48.550Z,2.90
2019-04-04T23:43:17.517Z,2.90
2019-04-04T23:45:46.371Z,2.90
2019-04-04T23:48:15.197Z,2.90
2019-04-04T23:50:44.176Z,2.90
2019-04-04T23:53:13.136Z,2.80
2019-04-04T23:55:42.338Z,2.80
2019-04-04T23:58:11.273Z,2.90
